Barbados Meteorological Services
Auto gathered TAF list
Powered by Apparatus software
For Flight AA1089
Contact Number 1-(246)-535-0021/2/3/4/5/6
WEB: http://www.barbadosweather.org

**********************************************

2019/02/17 18:09
TAF TLPL 171705Z 1718/1818 10020KT 9999 SCT026 PROB30
TEMPO 1718/1806 SHRA


**********************************************
2019/02/17 18:42
TAF TJSJ 171737Z 1718/1818 06015KT P6SM VCSH SCT030 SCT060
FM172230 10005KT P6SM FEW060
FM180800 13003KT P6SM VCSH FEW022 SCT035
FM181350 07016KT P6SM FEW035


**********************************************
2019/02/17 18:54
TAF TFFR 171600Z 1718/1818 10014KT 9999 SCT040
TEMPO 1806/1818 4000 SHRA SCT015TCU


**********************************************
2019/02/17 18:50
TAF TBPB 171700Z 1718/1818 09021KT 9999 SCT022= TAF TVSA 171700Z 1718/1818 08016KT 9999 SCT022


**********************************************
2019/02/17 18:06
TAF TAF TAPA 171700Z 1718/1818 09013KT 9999 SCT021 PROB30
TEMPO 1806/1812 SHRA


**********************************************
2019/02/17 18:57
TAF MYNN 171540Z 1718/1818 17010KT 9999 SCT020


**********************************************
2019/02/17 18:41
TAF MTPP 171714Z 1718/1818 09013KT 9999 FEW027
BECMG 1718/1722 27010KT PROB30
TEMPO 1800/1804 4500 -SHRA SCT022CB SCT040
BECMG 1808/1812 VRB02KT 9000 FEW016
BECMG 1814/1818 09010KT


**********************************************
2019/02/17 18:25
TAF MDSD 171600Z 1718/1818 12010KT 9999 SCT018 PROB40
TEMPO 1718/1800 7000 -RA BKN016 SCT070


**********************************************
2019/02/17 18:36
TAF KSFB 171735Z 1718/1818 19009KT P6SM SCT040
FM180000 19005KT P6SM FEW040 FEW250
FM181400 22007KT P6SM SCT035 BKN050


**********************************************
2019/02/17 18:22
TAF KPHL 171720Z 1718/1824 15004KT P6SM BKN200
FM172200 15006KT P6SM BKN060 OVC120
FM180100 12006KT 3SM -SNPL OVC012
FM180300 12005KT 3SM -SNRA OVC010
FM180500 13005KT 4SM -RA BR OVC008
FM180800 11005KT 2SM -RA BR OVC004
FM181100 VRB03KT 5SM BR OVC008
FM181400 28010KT P6SM BKN035
FM182000 28018G28KT P6SM BKN200


**********************************************
2019/02/17 18:34
TAF KPBI 171732Z 1718/1818 16010KT P6SM FEW026 SCT040
FM180100 16006KT P6SM FEW035


**********************************************
2019/02/17 18:34
TAF KOPF 171732Z 1718/1818 16012KT P6SM SCT035
FM180100 16006KT P6SM FEW035


**********************************************
2019/02/17 18:34
TAF KMIA 171732Z 1718/1824 14012KT P6SM SCT030
FM180100 14008KT P6SM SCT035
FM181400 15012KT P6SM SCT035


**********************************************
2019/02/17 18:36
TAF KMCO 171735Z 1718/1824 18009KT P6SM SCT040
FM180000 19005KT P6SM FEW040 FEW250
FM181400 22007KT P6SM SCT035 BKN050


**********************************************
2019/02/17 18:31
TAF KJFK 171724Z 1718/1824 15005KT P6SM SCT250
FM172000 17007KT P6SM SCT100 BKN200
FM180300 12008KT 3SM -SNPL BR BKN015 OVC025
FM180700 10010KT 2SM -PLRA BR BKN008
FM180900 08012KT 2SM -RA BR BKN006
FM181300 05006KT 3SM -DZ BR OVC009
FM181500 01006KT 5SM -DZ BR BKN009 OVC015
FM181700 29007KT P6SM BKN015 OVC025
FM181900 30018G26KT P6SM BKN035
FM182300 32020G28KT P6SM SCT035 SCT150


**********************************************
2019/02/17 18:51
TAF KJAX 171748Z 1718/1818 20010KT P6SM SCT025 BKN050
FM172300 20007KT P6SM SCT050
FM180700 21004KT P6SM SCT015 SCT040
TEMPO 1809/1811 BKN015
FM181100 18003KT 5SM BR BKN010
FM181300 21006KT P6SM VCSH SCT015 BKN025 OVC040
FM181600 24009KT P6SM VCSH SCT025 BKN050


**********************************************
2019/02/17 18:34
TAF KFLL 171732Z 1718/1824 18010KT P6SM FEW029 SCT040
FM180100 15008KT P6SM FEW035
FM181400 17012KT P6SM SCT040


**********************************************
2019/02/17 18:27
TAF KEWR 171724Z 1718/1824 14004KT P6SM SCT250
FM172000 16006KT P6SM SCT100 BKN200
FM180300 12005KT 3SM -SNPL BR BKN015 OVC025
FM180700 07009KT 2SM -PLRA BR BKN008
FM180900 04011KT 2SM -RA BR BKN006
FM181200 03006KT 3SM -DZ BR OVC010
FM181500 36005KT 5SM -DZ BR OVC015
FM181600 29007KT P6SM BKN015 OVC025
FM181800 30018G26KT P6SM BKN035
FM182200 32020G28KT P6SM SCT035 SCT150


**********************************************
2019/02/17 18:42
TAF KCLT 171740Z 1718/1824 05008KT P6SM OVC020
FM172100 11005KT P6SM -RA OVC012
FM180100 30003KT 4SM -RA BR OVC006
TEMPO 1809/1813 2SM RA BR OVC004
FM181300 27004KT 4SM BR OVC009
FM181500 29006KT P6SM BKN018
FM181700 30007KT P6SM SCT120


**********************************************
2019/02/17 18:48
TAF KATL 171745Z 1718/1824 10009KT 2SM -RADZ BR OVC004
FM172200 13007KT 4SM -RA BR OVC006
FM180300 19008KT 2SM -RA BR BKN004
FM180500 32011KT P6SM -RA BKN010
FM181100 32013G20KT P6SM SCT015 BKN050
FM181500 32014G22KT P6SM SCT040


**********************************************